Terminal Aerodrome Forecast
Issued by NWS Sioux Falls, SD

Home | Current Version | Previous Version | Text Only | Print | Product List | Glossary Off
Versions: 1 2 3 4 5 6 7 8 9 10 11 12 13 14 15 16 17 18 19 20 21 22 23 24 25 26 27 28

427
FTUS43 KFSD 161739
TAFSUX
TAF
KSUX 161739Z 1618/1718 18011KT P6SM SKC
     FM170200 18009KT P6SM SCT060 BKN080 WS020/22040KT
     FM171200 18005KT P6SM SCT080=

USA.gov is the U.S. government's official web portal to all federal, state and local government web resources and services.